createdAt,value
2018-12-07T00:02:20.193Z,1.90
2018-12-07T00:04:53.749Z,1.30
2018-12-07T00:07:27.709Z,1.73
2018-12-07T00:10:01.287Z,1.40
2018-12-07T00:12:30.859Z,1.37
2018-12-07T00:15:08.880Z,1.43
2018-12-07T00:17:44.702Z,1.30
2018-12-07T00:20:23.245Z,1.10
2018-12-07T00:22:58.891Z,1.03
2018-12-07T00:25:34.953Z,1.57
2018-12-07T00:28:08.651Z,1.47
2018-12-07T00:30:42.725Z,1.93
2018-12-07T00:33:16.449Z,1.07
2018-12-07T00:35:47.651Z,1.00
2018-12-07T00:38:21.063Z,1.07
2018-12-07T00:40:58.998Z,1.10
2018-12-07T00:43:34.104Z,0.90
2018-12-07T00:46:01.851Z,1.20
2018-12-07T00:48:32.743Z,1.10
2018-12-07T00:53:56.448Z,1.30
2018-12-07T00:56:32.055Z,1.30
2018-12-07T00:59:13.001Z,2.00
2018-12-07T01:01:43.990Z,2.67
2018-12-07T01:04:17.215Z,2.20
2018-12-07T01:06:51.492Z,2.70
2018-12-07T01:09:26.033Z,2.80
2018-12-07T01:12:00.956Z,2.37
2018-12-07T01:14:32.172Z,2.03
2018-12-07T01:17:07.505Z,1.77
2018-12-07T01:19:41.137Z,3.20
2018-12-07T01:22:12.460Z,2.30
2018-12-07T01:24:45.583Z,1.97
2018-12-07T01:27:19.195Z,2.20
2018-12-07T01:29:54.937Z,2.20
2018-12-07T01:32:32.653Z,1.90
2018-12-07T01:35:08.493Z,1.77
2018-12-07T01:37:42.289Z,1.93
2018-12-07T01:40:17.995Z,2.30
2018-12-07T01:42:51.838Z,1.70
2018-12-07T01:45:25.595Z,1.80
2018-12-07T01:47:59.485Z,2.27
2018-12-07T01:50:30.779Z,1.53
2018-12-07T01:53:11.245Z,2.60
2018-12-07T01:55:46.603Z,2.43
2018-12-07T01:58:20.223Z,2.20
2018-12-07T02:00:54.173Z,2.33
2018-12-07T02:03:28.224Z,2.07
2018-12-07T02:06:02.061Z,1.53
2018-12-07T02:08:30.043Z,1.33
2018-12-07T02:11:03.997Z,1.50
2018-12-07T02:13:35.627Z,1.53
2018-12-07T02:16:08.955Z,1.83
2018-12-07T02:18:43.636Z,1.63
2018-12-07T02:21:19.421Z,1.83
2018-12-07T02:23:53.698Z,2.53
2018-12-07T02:26:25.724Z,1.77
2018-12-07T02:28:53.515Z,2.07
2018-12-07T02:31:27.384Z,1.60
2018-12-07T02:33:58.812Z,1.90
2018-12-07T02:36:26.555Z,2.20
2018-12-07T02:39:01.897Z,2.23
2018-12-07T02:41:35.731Z,1.70
2018-12-07T02:44:05.166Z,2.10
2018-12-07T02:46:38.414Z,2.20
2018-12-07T02:49:22.549Z,1.70
2018-12-07T02:51:55.693Z,2.07
2018-12-07T02:54:29.380Z,1.67
2018-12-07T02:57:03.348Z,1.53
2018-12-07T02:59:37.669Z,2.10
2018-12-07T03:02:11.096Z,1.80
2018-12-07T03:04:46.923Z,1.37
2018-12-07T03:07:20.745Z,1.40
2018-12-07T03:09:54.237Z,1.83
2018-12-07T03:12:28.183Z,1.90
2018-12-07T03:15:03.415Z,1.60
2018-12-07T03:17:37.763Z,2.10
2018-12-07T03:20:12.150Z,2.10
2018-12-07T03:22:47.461Z,2.97
2018-12-07T03:25:25.204Z,3.17
2018-12-07T03:27:56.557Z,3.97
2018-12-07T03:30:29.929Z,2.07
2018-12-07T03:33:04.540Z,1.70
2018-12-07T03:35:38.400Z,1.67
2018-12-07T03:38:12.971Z,1.20
2018-12-07T03:40:49.257Z,1.20
2018-12-07T03:43:22.882Z,1.17
2018-12-07T03:45:56.540Z,1.27
2018-12-07T03:48:36.448Z,1.90
2018-12-07T03:51:09.797Z,1.23
2018-12-07T03:53:43.587Z,1.80
2018-12-07T03:56:14.976Z,1.30
2018-12-07T03:58:48.956Z,1.50
2018-12-07T04:01:23.915Z,1.53
2018-12-07T04:03:55.572Z,1.30
2018-12-07T04:06:29.200Z,1.73
2018-12-07T04:09:00.437Z,2.00
2018-12-07T04:11:33.584Z,1.80
2018-12-07T04:14:07.376Z,2.10
2018-12-07T04:16:43.331Z,1.53
2018-12-07T04:19:18.135Z,1.40
2018-12-07T04:21:51.989Z,0.97
2018-12-07T04:24:27.716Z,1.03
2018-12-07T04:26:56.788Z,1.13
2018-12-07T04:29:26.611Z,2.90
2018-12-07T04:32:02.798Z,0.93
2018-12-07T04:34:38.252Z,0.90
2018-12-07T04:37:18.607Z,0.80
2018-12-07T04:39:53.995Z,1.40
2018-12-07T04:42:27.668Z,0.63
2018-12-07T04:47:37.797Z,0.80
2018-12-07T04:50:11.181Z,0.73
2018-12-07T04:52:43.106Z,1.23
2018-12-07T04:55:17.227Z,0.80
2018-12-07T04:57:48.587Z,1.50
2018-12-07T05:00:28.254Z,2.70
2018-12-07T05:03:01.623Z,1.90
2018-12-07T05:05:35.578Z,2.20
2018-12-07T05:08:09.480Z,1.77
2018-12-07T05:10:42.979Z,1.77
2018-12-07T05:13:19.140Z,1.60
2018-12-07T05:15:48.013Z,1.00
2018-12-07T05:18:27.883Z,1.30
2018-12-07T05:20:59.583Z,1.90
2018-12-07T05:23:36.541Z,2.10
2018-12-07T05:26:09.653Z,1.53
2018-12-07T05:28:43.339Z,1.50
2018-12-07T05:31:17.974Z,1.50
2018-12-07T05:33:51.852Z,1.43
2018-12-07T05:36:25.579Z,1.67
2018-12-07T05:38:59.455Z,1.37
2018-12-07T05:41:35.044Z,1.43
2018-12-07T05:44:19.186Z,1.00
2018-12-07T05:46:52.600Z,1.40
2018-12-07T05:49:32.600Z,1.30
2018-12-07T05:52:03.589Z,1.40
2018-12-07T05:54:33.334Z,1.90
2018-12-07T05:57:04.172Z,1.50
2018-12-07T05:59:41.688Z,1.33
2018-12-07T06:02:12.584Z,1.53
2018-12-07T06:04:45.779Z,1.13
2018-12-07T06:07:21.003Z,1.50
2018-12-07T06:09:54.171Z,1.30
2018-12-07T06:12:26.104Z,1.33
2018-12-07T06:15:01.639Z,1.37
2018-12-07T06:17:40.315Z,1.50
2018-12-07T06:20:11.979Z,1.27
2018-12-07T06:22:45.932Z,1.20
2018-12-07T06:25:20.708Z,1.10
2018-12-07T06:27:52.261Z,1.17
2018-12-07T06:30:26.278Z,1.00
2018-12-07T06:33:10.259Z,0.90
2018-12-07T06:35:43.425Z,1.27
2018-12-07T06:38:17.295Z,1.40
2018-12-07T06:40:57.677Z,1.07
2018-12-07T06:43:31.198Z,0.90
2018-12-07T06:46:15.239Z,0.90
2018-12-07T06:49:21.511Z,1.33
2018-12-07T06:51:55.479Z,0.90
2018-12-07T06:54:28.843Z,1.07
2018-12-07T06:57:02.502Z,1.00
2018-12-07T06:59:36.466Z,0.80
2018-12-07T07:02:10.114Z,0.60
2018-12-07T07:04:43.800Z,0.80
2018-12-07T07:07:17.735Z,0.70
2018-12-07T07:10:04.529Z,0.80
2018-12-07T07:12:32.264Z,0.90
2018-12-07T07:15:00.007Z,0.90
2018-12-07T07:17:27.615Z,0.90
2018-12-07T07:19:55.319Z,0.80
2018-12-07T07:22:22.988Z,1.90
2018-12-07T07:24:50.690Z,0.70
2018-12-07T07:27:18.280Z,1.00
2018-12-07T07:29:45.863Z,0.57
2018-12-07T07:32:13.466Z,0.90
2018-12-07T07:34:41.071Z,0.60
2018-12-07T07:37:08.684Z,0.70
2018-12-07T07:39:36.303Z,1.83
2018-12-07T07:42:04.224Z,2.73
2018-12-07T07:44:32.026Z,0.93
2018-12-07T07:46:59.739Z,0.73
2018-12-07T07:49:27.463Z,1.00
2018-12-07T07:51:55.088Z,1.00
2018-12-07T07:54:22.865Z,1.20
2018-12-07T07:56:50.588Z,0.90
2018-12-07T07:59:18.226Z,0.60
2018-12-07T08:01:45.787Z,0.60
2018-12-07T08:04:13.593Z,0.67
2018-12-07T08:06:41.251Z,0.90
2018-12-07T08:09:08.911Z,0.60
2018-12-07T08:11:36.536Z,1.10
2018-12-07T08:14:04.175Z,0.73
2018-12-07T08:16:31.859Z,0.53
2018-12-07T08:18:59.479Z,0.80
2018-12-07T08:21:27.217Z,0.70
2018-12-07T08:23:54.928Z,0.70
2018-12-07T08:26:22.682Z,1.60
2018-12-07T08:28:50.389Z,0.60
2018-12-07T08:31:18.079Z,1.10
2018-12-07T08:33:45.791Z,1.20
2018-12-07T08:36:13.437Z,0.80
2018-12-07T08:38:41.163Z,1.40
2018-12-07T08:41:08.803Z,1.17
2018-12-07T08:43:36.395Z,1.73
2018-12-07T08:46:04.267Z,1.20
2018-12-07T08:48:32.007Z,0.70
2018-12-07T08:50:59.599Z,1.50
2018-12-07T08:53:28.234Z,1.80
2018-12-07T08:55:56.864Z,1.20
2018-12-07T08:58:24.707Z,0.80
2018-12-07T09:00:52.370Z,0.73
2018-12-07T09:03:20.077Z,1.10
2018-12-07T09:05:47.775Z,0.80
2018-12-07T09:08:15.681Z,1.40
2018-12-07T09:10:43.443Z,0.80
2018-12-07T09:13:11.028Z,1.00
2018-12-07T09:15:38.668Z,1.00
2018-12-07T09:18:06.253Z,0.53
2018-12-07T09:20:33.982Z,0.70
2018-12-07T09:23:02.261Z,1.10
2018-12-07T09:25:29.984Z,1.20
2018-12-07T09:27:58.051Z,0.60
2018-12-07T09:30:25.764Z,0.60
2018-12-07T09:32:54.215Z,0.47
2018-12-07T09:35:21.968Z,0.60
2018-12-07T09:37:49.637Z,0.40
2018-12-07T09:40:17.387Z,0.40
2018-12-07T09:42:45.243Z,0.60
2018-12-07T09:45:12.935Z,0.60
2018-12-07T09:47:40.604Z,0.53
2018-12-07T09:50:08.471Z,0.70
2018-12-07T09:52:36.243Z,0.47
2018-12-07T09:55:04.255Z,1.40
2018-12-07T09:57:32.108Z,0.70
2018-12-07T09:59:59.799Z,0.73
2018-12-07T10:02:27.637Z,0.60
2018-12-07T10:04:59.388Z,0.90
2018-12-07T10:07:27.215Z,0.77
2018-12-07T10:09:55.017Z,0.50
2018-12-07T10:12:22.688Z,0.50
2018-12-07T10:14:50.417Z,0.60
2018-12-07T10:17:21.650Z,0.40
2018-12-07T10:19:49.363Z,0.80
2018-12-07T10:22:17.114Z,0.50
2018-12-07T10:24:48.558Z,0.60
2018-12-07T10:27:16.311Z,0.53
2018-12-07T10:29:50.161Z,0.70
2018-12-07T10:32:17.866Z,0.60
2018-12-07T10:34:45.548Z,0.50
2018-12-07T10:37:18.773Z,0.70
2018-12-07T10:39:56.412Z,0.70
2018-12-07T10:42:30.158Z,0.80
2018-12-07T10:45:04.310Z,0.53
2018-12-07T10:47:33.113Z,0.60
2018-12-07T10:50:01.149Z,0.57
2018-12-07T10:52:28.823Z,0.70
2018-12-07T10:54:56.463Z,0.60
2018-12-07T10:57:24.200Z,0.50
2018-12-07T10:59:51.883Z,0.97
2018-12-07T11:02:28.070Z,0.60
2018-12-07T11:05:01.864Z,0.50
2018-12-07T11:07:35.110Z,1.10
2018-12-07T11:12:16.144Z,0.50
2018-12-07T11:15:50.841Z,0.87
2018-12-07T11:18:25.843Z,0.50
2018-12-07T11:20:59.394Z,0.53
2018-12-07T11:23:38.520Z,0.90
2018-12-07T11:26:19.991Z,0.50
2018-12-07T11:28:53.366Z,0.60
2018-12-07T11:31:26.769Z,1.10
2018-12-07T11:34:01.007Z,0.60
2018-12-07T11:36:28.730Z,0.70
2018-12-07T11:38:58.374Z,0.63
2018-12-07T11:41:26.232Z,0.57
2018-12-07T11:44:06.720Z,0.70
2018-12-07T11:46:34.508Z,0.60
2018-12-07T11:49:02.209Z,0.50
2018-12-07T11:51:33.726Z,0.80
2018-12-07T11:54:08.363Z,0.90
2018-12-07T11:56:48.683Z,0.70
2018-12-07T11:59:21.907Z,0.50
2018-12-07T12:01:49.704Z,0.50
2018-12-07T12:04:17.355Z,0.60
2018-12-07T12:06:45.166Z,0.60
2018-12-07T12:09:12.751Z,0.50
2018-12-07T12:11:40.405Z,1.10
2018-12-07T12:14:08.152Z,0.90
2018-12-07T12:16:48.962Z,0.57
2018-12-07T12:19:26.747Z,0.70
2018-12-07T12:21:57.633Z,0.83
2018-12-07T12:24:37.378Z,1.00
2018-12-07T12:27:12.922Z,0.60
2018-12-07T12:32:26.834Z,0.47
2018-12-07T12:34:58.983Z,0.60
2018-12-07T12:37:34.983Z,0.63
2018-12-07T12:40:08.766Z,0.70
2018-12-07T12:42:43.011Z,0.63
2018-12-07T12:45:20.225Z,0.43
2018-12-07T12:47:56.159Z,0.70
2018-12-07T12:50:35.474Z,0.60
2018-12-07T12:53:07.591Z,0.60
2018-12-07T12:55:41.272Z,0.40
2018-12-07T12:58:14.171Z,0.40
2018-12-07T13:00:48.182Z,0.40
2018-12-07T13:03:33.019Z,0.53
2018-12-07T13:06:05.545Z,0.53
2018-12-07T13:11:42.041Z,0.53
2018-12-07T13:14:15.659Z,0.40
2018-12-07T13:16:44.431Z,0.63
2018-12-07T13:19:19.881Z,0.47
2018-12-07T13:21:49.585Z,0.60
2018-12-07T13:24:34.421Z,0.60
2018-12-07T13:27:07.808Z,0.60
2018-12-07T13:29:41.563Z,0.57
2018-12-07T13:32:09.970Z,0.50
2018-12-07T13:34:43.864Z,0.70
2018-12-07T13:37:14.133Z,0.57
2018-12-07T13:39:42.753Z,0.50
2018-12-07T13:42:12.000Z,0.57
2018-12-07T13:44:39.956Z,0.70
2018-12-07T13:47:07.737Z,0.90
2018-12-07T13:49:35.580Z,0.70
2018-12-07T13:52:10.798Z,0.70
2018-12-07T13:54:38.666Z,0.50
2018-12-07T13:57:09.226Z,0.60
2018-12-07T13:59:43.221Z,0.90
2018-12-07T14:02:14.986Z,0.50
2018-12-07T14:04:55.932Z,0.60
2018-12-07T14:07:29.352Z,0.80
2018-12-07T14:09:57.455Z,0.60
2018-12-07T14:12:25.280Z,0.50
2018-12-07T14:14:53.165Z,0.73
2018-12-07T14:20:14.647Z,0.60
2018-12-07T14:22:42.429Z,0.60
2018-12-07T14:25:10.224Z,0.50
2018-12-07T14:27:40.147Z,1.27
2018-12-07T14:30:09.904Z,0.73
2018-12-07T14:32:39.610Z,0.93
2018-12-07T14:35:28.850Z,0.80
2018-12-07T14:37:56.685Z,1.00
2018-12-07T14:40:25.043Z,2.23
2018-12-07T14:42:52.879Z,1.17
2018-12-07T14:45:20.685Z,0.60
2018-12-07T14:47:52.898Z,0.80
2018-12-07T14:53:11.940Z,1.90
2018-12-07T14:55:49.681Z,1.10
2018-12-07T14:58:20.817Z,1.40
2018-12-07T15:00:52.041Z,0.80
2018-12-07T15:03:19.967Z,0.63
2018-12-07T15:05:48.223Z,1.00
2018-12-07T15:08:16.181Z,1.33
2018-12-07T15:10:44.139Z,0.63
2018-12-07T15:13:15.819Z,0.80
2018-12-07T15:15:47.083Z,0.80
2018-12-07T15:18:24.770Z,1.00
2018-12-07T15:21:05.186Z,0.97
2018-12-07T15:23:49.865Z,1.10
2018-12-07T15:26:23.144Z,1.00
2018-12-07T15:28:54.678Z,1.23
2018-12-07T15:31:25.728Z,1.10
2018-12-07T15:36:51.056Z,1.20
2018-12-07T15:48:05.679Z,1.83
2018-12-07T15:50:41.805Z,1.50
2018-12-07T15:53:15.841Z,1.13
2018-12-07T15:55:52.288Z,0.80
2018-12-07T15:58:29.690Z,1.10
2018-12-07T16:01:10.898Z,1.20
2018-12-07T16:09:11.937Z,1.20
2018-12-07T16:11:51.235Z,1.53
2018-12-07T16:14:28.889Z,1.30
2018-12-07T16:17:14.642Z,1.40
2018-12-07T16:22:38.107Z,1.30
2018-12-07T16:25:25.054Z,1.20
2018-12-07T16:30:40.538Z,1.40
2018-12-07T16:38:41.861Z,1.10
2018-12-07T16:44:05.856Z,1.10
2018-12-07T16:46:39.655Z,0.90
2018-12-07T16:49:11.028Z,0.90
2018-12-07T16:54:44.241Z,1.10
2018-12-07T16:57:25.307Z,1.07
2018-12-07T16:59:56.341Z,1.10
2018-12-07T17:02:34.711Z,1.03
2018-12-07T17:05:09.759Z,1.10
2018-12-07T17:07:39.088Z,1.10
2018-12-07T17:10:14.643Z,1.20
2018-12-07T17:12:48.166Z,1.20
2018-12-07T17:15:28.238Z,1.10
2018-12-07T17:17:59.259Z,1.40
2018-12-07T17:20:30.338Z,0.90
2018-12-07T17:23:02.015Z,0.93
2018-12-07T17:25:39.755Z,1.10
2018-12-07T17:28:17.906Z,1.20
2018-12-07T17:30:58.861Z,0.90
2018-12-07T17:33:43.445Z,1.23
2018-12-07T17:36:17.842Z,1.20
2018-12-07T17:38:51.480Z,1.00
2018-12-07T17:41:25.281Z,1.20
2018-12-07T17:43:56.923Z,1.00
2018-12-07T17:49:37.898Z,0.90
2018-12-07T17:52:18.140Z,1.07
2018-12-07T17:57:50.499Z,1.10
2018-12-07T18:00:37.983Z,1.30
2018-12-07T18:03:13.263Z,1.07
2018-12-07T18:05:48.293Z,0.97
2018-12-07T18:08:23.849Z,1.10
2018-12-07T18:10:57.477Z,1.33
2018-12-07T18:13:40.580Z,1.50
2018-12-07T18:16:16.813Z,1.20
2018-12-07T18:19:00.645Z,1.40
2018-12-07T18:21:44.040Z,1.20
2018-12-07T18:33:19.728Z,1.90
2018-12-07T18:39:20.302Z,1.40
2018-12-07T18:42:11.521Z,1.13
2018-12-07T18:47:52.480Z,1.20
2018-12-07T19:20:53.797Z,1.20
2018-12-07T19:51:06.260Z,1.07
2018-12-07T19:53:34.467Z,0.97
2018-12-07T19:56:12.981Z,0.90
2018-12-07T20:16:51.739Z,0.97
2018-12-07T20:19:36.927Z,0.97
2018-12-07T20:22:11.632Z,0.97
2018-12-07T20:24:46.103Z,1.27
2018-12-07T20:27:15.246Z,0.80
2018-12-07T20:29:43.984Z,1.47
2018-12-07T20:32:14.447Z,1.40
2018-12-07T20:34:43.541Z,1.10
2018-12-07T20:37:12.034Z,1.30
2018-12-07T20:39:44.527Z,0.93
2018-12-07T20:42:27.925Z,1.23
2018-12-07T20:44:55.781Z,0.97
2018-12-07T20:47:29.947Z,0.80
2018-12-07T20:50:04.942Z,1.13
2018-12-07T20:55:47.975Z,0.90
2018-12-07T20:58:21.669Z,0.80
2018-12-07T21:04:09.507Z,0.90
2018-12-07T21:12:56.828Z,1.10
2018-12-07T21:15:45.202Z,1.23
2018-12-07T21:21:18.390Z,1.47
2018-12-07T21:40:51.655Z,0.60
2018-12-07T21:43:33.101Z,1.00
2018-12-07T21:46:03.100Z,0.90
2018-12-07T21:51:32.762Z,1.67
2018-12-07T21:56:52.054Z,0.80
2018-12-07T21:59:25.871Z,1.50
2018-12-07T22:02:08.236Z,0.70
2018-12-07T22:04:47.641Z,0.87
2018-12-07T22:07:23.407Z,0.70
2018-12-07T22:09:56.995Z,1.47
2018-12-07T22:17:37.004Z,1.13
2018-12-07T22:20:10.807Z,1.07
2018-12-07T22:22:44.764Z,1.27
2018-12-07T22:28:04.248Z,1.43
2018-12-07T22:33:21.065Z,1.10
2018-12-07T22:35:55.781Z,1.13
2018-12-07T22:41:20.625Z,1.53
2018-12-07T22:46:43.343Z,2.00
2018-12-07T22:49:23.338Z,1.47
2018-12-07T22:51:56.624Z,1.73
2018-12-07T22:54:30.644Z,1.30
2018-12-07T22:57:10.643Z,1.70
2018-12-07T23:02:24.669Z,1.20
2018-12-07T23:07:41.767Z,1.80
2018-12-07T23:10:15.035Z,2.00
2018-12-07T23:12:52.911Z,2.63
2018-12-07T23:15:22.344Z,1.70
2018-12-07T23:17:53.897Z,1.47
2018-12-07T23:20:31.286Z,1.97
2018-12-07T23:28:35.838Z,1.47
2018-12-07T23:33:56.797Z,1.70
2018-12-07T23:36:34.272Z,1.63
2018-12-07T23:39:07.032Z,1.90
2018-12-07T23:41:36.434Z,1.83
2018-12-07T23:44:07.489Z,2.03
2018-12-07T23:46:40.675Z,2.30
2018-12-07T23:54:48.591Z,1.37
2018-12-07T23:57:37.139Z,2.43
